Eglin AFB Auxiliary Field Crestview Okaloosa Florida US
ICAO: KEGI
IATA: EGI
Category: Medium
Scheduled Services: No

Elevation: 191 ft
TransAlt. 18000 ft.

Airport Communications:
APP:37.915
APP:125.1
DEP:120.9
GND:25.112
COMD POST:150.6
PTD:139.3
TWR:133.2

KEGI Zoom In..

Runways:

(A) RW 18 length 8025 ft width 150 ft
ILS 111.70 / hdg 180

(B) RW 36 length 8025 ft width 150 ft
---- / hdg 360

Location; KEGI
Day. 19 / Time. 20.55 Zulu
* Altimeter: 30.04
* Temperature: 28° c. 82.4°f.
* Wind from: 320° Speed 11 kn.
Dewpoint: 10° c.
Visibility: 10 Statute Miles.
Clouds: Few 6000 ft.

KEGI 192055Z 32011KT 10SM FEW060 28/10 A3004 RMK AO2A SLP172 T02790097 58013 $


Wind From 320°
Speed 11 kn.

  YouTube Music Video
 
jpsmedia.com for Web Design  worldairports.se 2018   terms of use